Time;durP1;ratioP1;P1;durP2;ratioP2;P2;SDS_P1;SDS_P2;PMS_P1;PMS_P2;Temp;Humidity;BMP_temperature;BMP_pressure;BME280_temperature;BME280_humidity;BME280_pressure;Samples;Min_cycle;Max_cycle;Signal;HPM_P1;HPM_P2
2021/08/29 00:00:02;;;;;;;20.90;5.57;;;;;;;;;;5093986;28;20549;-73
2021/08/29 00:02:51;;;;;;;11.57;4.43;;;;;;;;;;5093837;28;20052;-73
2021/08/29 00:05:36;;;;;;;10.98;4.80;;;;;;;;;;5091646;28;20052;-74
2021/08/29 00:08:22;;;;;;;9.95;4.25;;;;;;;;;;5093572;28;20056;-73
2021/08/29 00:11:07;;;;;;;12.73;5.40;;;;;;;;;;5093743;28;20056;-74
2021/08/29 00:13:52;;;;;;;12.38;4.03;;;;;;;;;;5091394;28;20055;-73
2021/08/29 00:16:37;;;;;;;16.52;5.28;;;;;;;;;;5093605;28;20064;-73
2021/08/29 00:19:23;;;;;;;10.30;4.80;;;;;;;;;;5093794;28;20130;-73
2021/08/29 00:22:08;;;;;;;10.98;4.57;;;;;;;;;;5093794;28;20048;-73
2021/08/29 00:24:53;;;;;;;12.57;4.95;;;;;;;;;;5091789;28;20391;-73
2021/08/29 00:27:38;;;;;;;11.95;4.18;;;;;;;;;;5092699;28;20048;-73
2021/08/29 00:30:23;;;;;;;11.57;4.20;;;;;;;;;;5079124;28;20501;-73
2021/08/29 00:33:08;;;;;;;12.18;4.35;;;;;;;;;;5093247;28;20056;-73
2021/08/29 00:35:53;;;;;;;15.82;4.70;;;;;;;;;;5076850;28;20549;-74
2021/08/29 00:38:38;;;;;;;11.27;4.35;;;;;;;;;;5092776;28;20506;-73
2021/08/29 00:41:24;;;;;;;7.07;3.78;;;;;;;;;;5078864;28;20044;-74
2021/08/29 00:44:09;;;;;;;12.07;4.07;;;;;;;;;;5078423;28;20395;-73
2021/08/29 00:46:55;;;;;;;9.95;4.18;;;;;;;;;;5077101;28;20510;-73
2021/08/29 00:49:40;;;;;;;7.93;4.15;;;;;;;;;;5078645;28;20127;-73
2021/08/29 00:52:25;;;;;;;13.25;4.63;;;;;;;;;;5078545;28;20121;-73
2021/08/29 00:55:11;;;;;;;10.20;4.50;;;;;;;;;;5076398;28;20553;-73
2021/08/29 00:58:05;;;;;;;16.92;4.63;;;;;;;;;;5078391;28;20048;-73
2021/08/29 01:00:52;;;;;;;8.23;3.95;;;;;;;;;;5064546;28;20052;-73
2021/08/29 01:03:37;;;;;;;11.20;4.38;;;;;;;;;;5064269;28;20056;-74
2021/08/29 01:06:23;;;;;;;12.10;4.72;;;;;;;;;;5077137;28;20127;-73
2021/08/29 01:09:21;;;;;;;11.52;4.68;;;;;;;;;;5092250;28;20060;-73
2021/08/29 01:12:07;;;;;;;9.50;4.45;;;;;;;;;;5078626;28;20052;-73
2021/08/29 01:15:02;;;;;;;9.93;4.57;;;;;;;;;;5079389;28;20123;-73
2021/08/29 01:17:48;;;;;;;10.02;4.53;;;;;;;;;;5063495;28;20052;-73
2021/08/29 01:20:38;;;;;;;12.05;4.95;;;;;;;;;;5064316;28;20130;-73
2021/08/29 01:23:23;;;;;;;13.25;4.82;;;;;;;;;;5077941;28;20052;-72
2021/08/29 01:26:14;;;;;;;10.07;5.30;;;;;;;;;;5062262;28;20056;-73
2021/08/29 01:29:04;;;;;;;13.63;4.85;;;;;;;;;;5071318;28;20055;-73
2021/08/29 01:31:51;;;;;;;10.02;5.05;;;;;;;;;;5071521;28;20061;-73
2021/08/29 01:34:36;;;;;;;12.35;5.20;;;;;;;;;;5085940;28;20098;-73
2021/08/29 01:37:33;;;;;;;9.90;5.03;;;;;;;;;;5095121;28;20048;-73
2021/08/29 01:40:18;;;;;;;11.85;4.78;;;;;;;;;;5076303;28;20094;-73
2021/08/29 01:43:04;;;;;;;8.82;4.25;;;;;;;;;;5091759;28;20502;-73
2021/08/29 01:45:50;;;;;;;13.07;5.18;;;;;;;;;;5091610;28;20190;-73
2021/08/29 01:48:39;;;;;;;9.45;4.60;;;;;;;;;;5095113;28;20056;-73
2021/08/29 01:51:27;;;;;;;11.63;4.60;;;;;;;;;;5077301;28;20079;-73
2021/08/29 01:54:16;;;;;;;12.68;5.25;;;;;;;;;;5057151;28;20053;-72
2021/08/29 01:57:20;;;;;;;11.68;5.43;;;;;;;;;;5070772;28;20052;-73
2021/08/29 02:00:12;;;;;;;;;;;;;;;;;;5092093;28;20052;-73
2021/08/29 02:02:58;;;;;;;9.90;4.35;;;;;;;;;;5077160;28;19920;-73
2021/08/29 02:05:44;;;;;;;14.55;5.10;;;;;;;;;;5110829;27;20584;-73
2021/08/29 02:08:29;;;;;;;11.35;4.63;;;;;;;;;;5124197;27;20052;-73
2021/08/29 02:11:14;;;;;;;8.93;4.95;;;;;;;;;;5091310;28;20052;-73
2021/08/29 02:14:01;;;;;;;8.68;3.97;;;;;;;;;;5089998;28;20097;-73
2021/08/29 02:16:47;;;;;;;11.50;4.53;;;;;;;;;;5090531;28;20050;-73
2021/08/29 02:19:34;;;;;;;8.88;4.63;;;;;;;;;;5122152;27;20075;-73
2021/08/29 02:22:23;;;;;;;13.05;5.22;;;;;;;;;;5090908;28;20048;-73
2021/08/29 02:25:08;;;;;;;12.13;4.55;;;;;;;;;;5076845;28;20391;-73
2021/08/29 02:27:55;;;;;;;10.05;4.68;;;;;;;;;;5075802;28;20048;-73
2021/08/29 02:30:41;;;;;;;9.35;4.93;;;;;;;;;;5088255;27;20498;-73
2021/08/29 02:33:30;;;;;;;14.80;4.30;;;;;;;;;;5086396;27;20044;-73
2021/08/29 02:36:16;;;;;;;12.20;4.45;;;;;;;;;;5087020;28;20135;-72
2021/08/29 02:39:08;;;;;;;9.20;3.50;;;;;;;;;;5073294;28;20200;-72
2021/08/29 02:41:53;;;;;;;8.27;3.97;;;;;;;;;;5062018;28;20494;-73
2021/08/29 02:44:40;;;;;;;11.65;4.30;;;;;;;;;;5062467;28;20514;-73
2021/08/29 02:47:25;;;;;;;9.32;4.57;;;;;;;;;;5078530;22;20057;-72
2021/08/29 02:50:12;;;;;;;9.93;4.15;;;;;;;;;;5048949;28;20077;-72
2021/08/29 02:53:03;;;;;;;12.68;3.90;;;;;;;;;;5036498;28;20499;-72
2021/08/29 02:55:49;;;;;;;13.85;4.93;;;;;;;;;;5041469;28;20502;-71
2021/08/29 02:58:35;;;;;;;11.57;4.13;;;;;;;;;;5073298;28;20052;-72
2021/08/29 03:01:33;;;;;;;6.72;3.50;;;;;;;;;;5072723;28;20040;-71
2021/08/29 03:04:18;;;;;;;11.32;3.47;;;;;;;;;;5058221;28;20091;-71
2021/08/29 03:07:04;;;;;;;9.52;3.33;;;;;;;;;;5032923;28;20044;-72
2021/08/29 03:09:49;;;;;;;9.43;4.15;;;;;;;;;;5058713;28;20049;-72
2021/08/29 03:12:34;;;;;;;10.07;3.08;;;;;;;;;;5074808;28;20052;-72
2021/08/29 03:15:47;;;;;;;;;;;;;;;;;;5051148;28;20056;-70
2021/08/29 03:19:05;;;;;;;10.70;3.80;;;;;;;;;;5043577;28;19921;-72
2021/08/29 03:21:57;;;;;;;6.97;2.85;;;;;;;;;;5048828;28;20053;-70
2021/08/29 03:24:42;;;;;;;8.38;3.42;;;;;;;;;;5043725;28;20052;-70
2021/08/29 03:27:28;;;;;;;12.48;3.75;;;;;;;;;;5052679;28;20055;-71
2021/08/29 03:30:15;;;;;;;12.73;3.80;;;;;;;;;;5065477;28;20413;-70
2021/08/29 03:33:01;;;;;;;9.00;4.22;;;;;;;;;;5038961;28;20044;-70
2021/08/29 03:35:55;;;;;;;9.77;3.50;;;;;;;;;;5033797;28;20049;-71
2021/08/29 03:38:40;;;;;;;10.20;3.45;;;;;;;;;;5039065;28;20049;-71
2021/08/29 03:41:26;;;;;;;9.38;3.55;;;;;;;;;;5067780;28;20044;-71
2021/08/29 03:44:13;;;;;;;10.57;4.82;;;;;;;;;;5055159;28;20056;-71
2021/08/29 03:46:58;;;;;;;8.77;3.42;;;;;;;;;;5055802;28;20048;-71
2021/08/29 03:49:49;;;;;;;10.25;3.83;;;;;;;;;;5054176;28;20052;-71
2021/08/29 03:52:38;;;;;;;9.02;3.55;;;;;;;;;;5073425;28;20090;-71
2021/08/29 03:55:32;;;;;;;8.38;3.28;;;;;;;;;;5055544;28;20053;-71
2021/08/29 03:58:17;;;;;;;12.63;4.32;;;;;;;;;;5055635;28;20080;-71
2021/08/29 04:01:06;;;;;;;8.10;3.78;;;;;;;;;;5071100;28;20410;-62
2021/08/29 04:03:51;;;;;;;10.10;3.53;;;;;;;;;;5071454;28;20053;-62
2021/08/29 04:06:41;;;;;;;10.60;3.63;;;;;;;;;;5075003;28;20513;-62
2021/08/29 04:09:33;;;;;;;8.60;3.55;;;;;;;;;;5060827;28;20123;-62
2021/08/29 04:12:19;;;;;;;6.68;3.30;;;;;;;;;;5073773;28;20502;-63
2021/08/29 04:15:24;;;;;;;10.98;3.70;;;;;;;;;;5073675;28;20052;-62
2021/08/29 04:18:09;;;;;;;12.32;3.90;;;;;;;;;;5059868;28;20092;-62
2021/08/29 04:20:55;;;;;;;15.48;3.28;;;;;;;;;;5073457;28;20078;-62
2021/08/29 04:23:41;;;;;;;10.63;4.22;;;;;;;;;;5073407;28;20084;-62
2021/08/29 04:26:26;;;;;;;13.32;3.97;;;;;;;;;;5074557;28;20052;-63
2021/08/29 04:29:12;;;;;;;8.50;2.92;;;;;;;;;;5073370;28;20052;-62
2021/08/29 04:31:57;;;;;;;12.35;4.70;;;;;;;;;;5073578;28;20083;-62
2021/08/29 04:34:42;;;;;;;16.33;4.28;;;;;;;;;;5073126;28;20048;-62
2021/08/29 04:37:37;;;;;;;9.05;4.00;;;;;;;;;;5060542;28;20107;-62
2021/08/29 04:40:28;;;;;;;10.93;3.30;;;;;;;;;;5073461;28;20060;-62
2021/08/29 04:43:20;;;;;;;10.90;3.63;;;;;;;;;;5073168;28;20052;-62
2021/08/29 04:46:05;;;;;;;12.52;4.03;;;;;;;;;;5073096;28;20052;-62
2021/08/29 04:48:50;;;;;;;10.88;3.47;;;;;;;;;;5074227;28;20052;-64
2021/08/29 04:51:36;;;;;;;10.80;3.53;;;;;;;;;;5073408;28;20048;-63
2021/08/29 04:54:22;;;;;;;15.73;4.82;;;;;;;;;;5073257;28;20410;-62
2021/08/29 04:57:07;;;;;;;8.23;3.67;;;;;;;;;;5074021;28;20045;-62
2021/08/29 04:59:52;;;;;;;16.27;3.95;;;;;;;;;;5072789;28;20049;-62
2021/08/29 05:02:37;;;;;;;8.73;3.72;;;;;;;;;;5073039;28;20060;-62
2021/08/29 05:05:23;;;;;;;13.80;3.80;;;;;;;;;;5072651;28;20045;-62
2021/08/29 05:08:08;;;;;;;12.15;5.30;;;;;;;;;;5074038;28;20057;-63
2021/08/29 05:10:53;;;;;;;14.65;4.68;;;;;;;;;;5072915;28;20049;-63
2021/08/29 05:13:38;;;;;;;10.60;4.10;;;;;;;;;;5073497;28;20077;-62
2021/08/29 05:16:24;;;;;;;15.30;4.07;;;;;;;;;;5073390;28;20510;-62
2021/08/29 05:19:11;;;;;;;15.35;4.68;;;;;;;;;;5073246;28;20052;-62
2021/08/29 05:21:56;;;;;;;14.10;4.22;;;;;;;;;;5072540;28;20049;-62
2021/08/29 05:25:05;;;;;;;11.70;3.97;;;;;;;;;;5072708;28;20053;-62
2021/08/29 05:27:50;;;;;;;12.80;4.30;;;;;;;;;;5072399;28;20119;-62
2021/08/29 05:30:35;;;;;;;9.20;3.08;;;;;;;;;;5073312;28;20057;-62
2021/08/29 05:33:20;;;;;;;11.25;3.65;;;;;;;;;;5072479;28;20052;-63
2021/08/29 05:36:06;;;;;;;9.40;3.25;;;;;;;;;;5072414;28;20143;-63
2021/08/29 05:38:52;;;;;;;11.80;3.42;;;;;;;;;;5073734;28;20052;-62
2021/08/29 05:41:44;;;;;;;12.45;3.55;;;;;;;;;;5073893;28;20498;-63
2021/08/29 05:44:52;;;;;;;10.07;3.85;;;;;;;;;;5071757;28;20123;-62
2021/08/29 05:47:37;;;;;;;13.13;4.60;;;;;;;;;;5072668;28;20052;-61
2021/08/29 05:50:23;;;;;;;10.65;4.05;;;;;;;;;;5071650;28;20056;-62
2021/08/29 05:53:08;;;;;;;17.45;4.38;;;;;;;;;;5071535;28;20414;-62
2021/08/29 05:55:53;;;;;;;9.80;4.22;;;;;;;;;;5071716;28;20060;-61
2021/08/29 05:58:38;;;;;;;13.93;4.20;;;;;;;;;;5071529;28;20052;-61
2021/08/29 06:01:23;;;;;;;14.55;5.05;;;;;;;;;;5071790;28;20123;-62
2021/08/29 06:04:08;;;;;;;20.15;4.40;;;;;;;;;;5071582;28;20441;-62
2021/08/29 06:07:05;;;;;;;11.00;3.88;;;;;;;;;;5071270;28;20052;-62
2021/08/29 06:09:50;;;;;;;14.95;4.57;;;;;;;;;;5071617;28;20056;-63
2021/08/29 06:12:36;;;;;;;10.60;4.43;;;;;;;;;;5071565;28;20127;-63
2021/08/29 06:15:22;;;;;;;14.30;4.30;;;;;;;;;;5072035;28;20304;-63
2021/08/29 06:18:07;;;;;;;13.68;4.25;;;;;;;;;;5071404;28;20052;-63
2021/08/29 06:20:53;;;;;;;9.48;3.58;;;;;;;;;;5071656;28;20045;-63
2021/08/29 06:23:38;;;;;;;11.80;4.28;;;;;;;;;;5071177;28;20052;-63
2021/08/29 06:26:41;;;;;;;14.70;4.85;;;;;;;;;;5071589;28;20498;-62
2021/08/29 06:29:46;;;;;;;13.60;3.95;;;;;;;;;;5072113;28;20056;-62
2021/08/29 06:32:46;;;;;;;13.25;3.95;;;;;;;;;;5073140;28;20052;-63
2021/08/29 06:35:36;;;;;;;14.98;4.10;;;;;;;;;;5072214;28;20402;-62
2021/08/29 06:38:23;;;;;;;12.30;3.58;;;;;;;;;;5071872;28;20056;-62
2021/08/29 06:41:09;;;;;;;13.95;4.47;;;;;;;;;;5074404;28;20052;-62
2021/08/29 06:43:56;;;;;;;14.50;3.90;;;;;;;;;;5072720;28;20049;-63
2021/08/29 06:47:00;;;;;;;19.20;4.85;;;;;;;;;;5073497;28;20045;-63
2021/08/29 06:50:04;;;;;;;13.15;3.55;;;;;;;;;;5072200;28;20057;-62
2021/08/29 06:53:13;;;;;;;18.27;4.68;;;;;;;;;;5050994;28;20438;-61
2021/08/29 06:56:18;;;;;;;11.43;3.33;;;;;;;;;;5071724;28;20048;-62
2021/08/29 06:59:12;;;;;;;16.15;5.07;;;;;;;;;;5070678;28;20048;-62
2021/08/29 07:01:57;;;;;;;11.45;3.55;;;;;;;;;;5071070;28;20048;-62
2021/08/29 07:04:42;;;;;;;15.77;4.53;;;;;;;;;;5071055;28;20049;-62
2021/08/29 07:07:30;;;;;;;15.35;4.78;;;;;;;;;;5071585;28;20049;-62
2021/08/29 07:10:24;;;;;;;14.65;4.30;;;;;;;;;;5072304;28;20049;-62
2021/08/29 07:13:28;;;;;;;15.77;3.90;;;;;;;;;;5072261;28;20056;-62
2021/08/29 07:16:14;;;;;;;9.65;3.78;;;;;;;;;;5071834;28;20052;-62
2021/08/29 07:18:59;;;;;;;18.15;4.85;;;;;;;;;;5071081;28;20384;-61
2021/08/29 07:22:04;;;;;;;13.63;4.53;;;;;;;;;;5071468;28;20048;-62
2021/08/29 07:25:13;;;;;;;15.00;4.53;;;;;;;;;;5050460;28;20044;-62
2021/08/29 07:28:17;;;;;;;17.40;4.35;;;;;;;;;;5071594;28;20048;-62
2021/08/29 07:31:40;;;;;;;12.55;4.78;;;;;;;;;;5071653;28;20052;-62
2021/08/29 07:34:26;;;;;;;15.93;5.03;;;;;;;;;;5070433;28;20119;-62
2021/08/29 07:37:40;;;;;;;13.77;5.35;;;;;;;;;;5071605;28;20092;-62
2021/08/29 07:40:25;;;;;;;18.40;4.97;;;;;;;;;;5074287;28;20049;-62
2021/08/29 07:43:11;;;;;;;17.88;5.63;;;;;;;;;;5074224;28;20503;-62
2021/08/29 07:45:56;;;;;;;13.00;4.95;;;;;;;;;;5074159;28;20049;-62
2021/08/29 07:48:42;;;;;;;11.23;4.93;;;;;;;;;;5075443;28;20053;-63
2021/08/29 07:51:31;;;;;;;16.88;5.57;;;;;;;;;;5074830;28;20052;-61
2021/08/29 07:54:45;;;;;;;16.27;5.40;;;;;;;;;;5075534;28;20119;-62
2021/08/29 07:57:49;;;;;;;15.60;4.72;;;;;;;;;;5075545;28;20044;-62
2021/08/29 08:00:45;;;;;;;10.32;4.15;;;;;;;;;;5073820;28;20441;-62
2021/08/29 08:03:49;;;;;;;12.40;3.63;;;;;;;;;;5075100;28;20123;-63
2021/08/29 08:07:12;;;;;;;11.20;4.03;;;;;;;;;;5013978;28;20049;-63
2021/08/29 08:10:33;;;;;;;10.38;4.00;;;;;;;;;;5033579;28;20065;-63
2021/08/29 08:13:32;;;;;;;11.65;4.15;;;;;;;;;;5080916;28;20498;-62
2021/08/29 08:16:17;;;;;;;9.55;4.00;;;;;;;;;;5074176;28;20056;-62
2021/08/29 08:19:03;;;;;;;9.07;4.30;;;;;;;;;;5074787;28;20052;-62
2021/08/29 08:21:49;;;;;;;10.68;4.93;;;;;;;;;;5073753;28;20048;-62
2021/08/29 08:24:44;;;;;;;12.82;4.70;;;;;;;;;;5074197;28;20045;-62
2021/08/29 08:27:48;;;;;;;12.50;5.03;;;;;;;;;;5074527;28;20049;-62
2021/08/29 08:30:52;;;;;;;9.95;4.70;;;;;;;;;;5074434;28;20048;-62
2021/08/29 08:34:05;;;;;;;12.70;5.63;;;;;;;;;;5073149;28;20083;-63
2021/08/29 08:37:11;;;;;;;10.75;5.30;;;;;;;;;;5073143;28;20060;-62
2021/08/29 08:40:15;;;;;;;13.07;5.22;;;;;;;;;;5074354;28;20269;-63
2021/08/29 08:43:06;;;;;;;15.52;5.55;;;;;;;;;;5073163;28;20044;-63
2021/08/29 08:46:23;;;;;;;14.10;5.05;;;;;;;;;;5094484;22;20047;-66
2021/08/29 08:49:37;;;;;;;13.35;5.30;;;;;;;;;;5114214;28;20051;-66
2021/08/29 08:52:41;;;;;;;15.20;5.72;;;;;;;;;;5102264;28;20126;-65
2021/08/29 08:55:47;;;;;;;18.00;6.25;;;;;;;;;;5114153;28;20408;-65
2021/08/29 08:58:50;;;;;;;18.63;6.32;;;;;;;;;;5114428;28;20052;-65
2021/08/29 09:01:59;;;;;;;14.13;5.47;;;;;;;;;;5102531;28;20126;-65
2021/08/29 09:05:03;;;;;;;12.68;5.60;;;;;;;;;;5114191;28;20084;-65
2021/08/29 09:07:49;;;;;;;15.45;5.45;;;;;;;;;;5098668;28;20472;-65
2021/08/29 09:10:34;;;;;;;10.98;5.00;;;;;;;;;;5098866;28;20418;-65
2021/08/29 09:13:19;;;;;;;14.50;5.90;;;;;;;;;;5099203;28;20052;-65
2021/08/29 09:16:18;;;;;;;17.27;5.63;;;;;;;;;;5084587;28;20048;-64
2021/08/29 09:19:06;;;;;;;15.70;6.57;;;;;;;;;;5098839;28;20051;-64
2021/08/29 09:21:53;;;;;;;18.80;5.63;;;;;;;;;;5098665;28;20047;-65
2021/08/29 09:24:52;;;;;;;9.98;4.55;;;;;;;;;;5084530;28;20047;-65
2021/08/29 09:27:57;;;;;;;10.55;5.28;;;;;;;;;;5098464;28;20044;-65
2021/08/29 09:31:00;;;;;;;14.65;4.75;;;;;;;;;;5098416;28;20128;-65
2021/08/29 09:33:58;;;;;;;12.88;4.90;;;;;;;;;;5113651;28;20108;-64
2021/08/29 09:36:43;;;;;;;9.50;3.67;;;;;;;;;;5113726;28;20160;-65
2021/08/29 09:39:49;;;;;;;8.60;3.75;;;;;;;;;;5098419;28;20055;-65
2021/08/29 09:42:55;;;;;;;10.18;3.50;;;;;;;;;;5113410;28;20142;-63
2021/08/29 09:45:45;;;;;;;11.65;4.57;;;;;;;;;;5097762;28;20115;-64
2021/08/29 09:48:50;;;;;;;10.15;4.53;;;;;;;;;;5113540;28;20043;-65
2021/08/29 09:51:48;;;;;;;8.50;4.55;;;;;;;;;;5098072;28;20047;-64
2021/08/29 09:54:54;;;;;;;6.72;3.47;;;;;;;;;;5086563;28;20126;-66
2021/08/29 09:58:20;;;;;;;6.95;3.80;;;;;;;;;;5113252;28;20051;-64
2021/08/29 10:01:19;;;;;;;7.63;3.53;;;;;;;;;;5097309;28;20087;-65
2021/08/29 10:04:24;;;;;;;8.02;4.22;;;;;;;;;;5113019;28;20043;-64
2021/08/29 10:07:16;;;;;;;8.10;2.90;;;;;;;;;;5097809;28;20083;-64
2021/08/29 10:10:01;;;;;;;8.38;3.40;;;;;;;;;;5097822;28;20123;-65
2021/08/29 10:12:47;;;;;;;7.38;3.25;;;;;;;;;;5083325;28;20052;-64
2021/08/29 10:15:36;;;;;;;6.07;2.53;;;;;;;;;;5083382;28;20400;-64
2021/08/29 10:18:22;;;;;;;7.05;2.72;;;;;;;;;;5112834;28;20114;-64
2021/08/29 10:21:30;;;;;;;7.30;2.85;;;;;;;;;;5112992;28;20092;-64
2021/08/29 10:24:15;;;;;;;6.88;3.13;;;;;;;;;;5097388;28;20051;-63
2021/08/29 10:27:03;;;;;;;5.18;3.00;;;;;;;;;;5096829;28;20055;-69
2021/08/29 10:30:20;;;;;;;5.40;3.10;;;;;;;;;;5076955;28;20047;-64
2021/08/29 10:33:35;;;;;;;6.90;3.15;;;;;;;;;;5102870;28;20040;-64
2021/08/29 10:36:30;;;;;;;4.97;3.45;;;;;;;;;;5095186;28;20464;-64
2021/08/29 10:39:24;;;;;;;5.68;3.00;;;;;;;;;;5110658;28;20044;-65
2021/08/29 10:42:18;;;;;;;7.15;3.20;;;;;;;;;;5096613;28;20047;-66
2021/08/29 10:45:22;;;;;;;6.10;3.47;;;;;;;;;;5111078;28;20415;-65
2021/08/29 10:48:26;;;;;;;6.55;3.42;;;;;;;;;;5112425;28;20093;-65
2021/08/29 10:51:18;;;;;;;4.88;3.00;;;;;;;;;;5083751;28;20056;-65
2021/08/29 10:54:03;;;;;;;7.47;3.20;;;;;;;;;;5096876;28;20089;-65
2021/08/29 10:56:48;;;;;;;5.75;2.90;;;;;;;;;;5082756;28;20047;-66
2021/08/29 10:59:41;;;;;;;6.78;3.67;;;;;;;;;;5096957;28;20052;-66
2021/08/29 11:02:41;;;;;;;8.05;3.55;;;;;;;;;;5083489;28;20075;-66
2021/08/29 11:05:55;;;;;;;6.50;3.42;;;;;;;;;;5104673;28;20501;-66
2021/08/29 11:08:47;;;;;;;7.43;3.92;;;;;;;;;;5096935;28;20052;-65
2021/08/29 11:11:48;;;;;;;7.07;3.67;;;;;;;;;;5096882;28;20500;-66
2021/08/29 11:14:35;;;;;;;;;;;;;;;;;;5101400;28;20051;-66
2021/08/29 11:17:21;;;;;;;3.33;2.63;;;;;;;;;;5100918;28;19923;-66
2021/08/29 11:20:16;;;;;;;4.28;2.53;;;;;;;;;;5100966;28;20502;-64
2021/08/29 11:23:43;;;;;;;6.97;3.00;;;;;;;;;;5116100;28;20052;-64
2021/08/29 11:26:42;;;;;;;6.10;3.47;;;;;;;;;;5116187;28;20504;-65
2021/08/29 11:30:00;;;;;;;4.60;3.13;;;;;;;;;;5081360;28;20510;-64
2021/08/29 11:33:00;;;;;;;6.88;2.83;;;;;;;;;;5100845;28;20055;-65
2021/08/29 11:35:49;;;;;;;10.65;3.78;;;;;;;;;;5100426;28;20051;-65
2021/08/29 11:38:53;;;;;;;5.95;3.42;;;;;;;;;;5116040;28;20055;-65
2021/08/29 11:41:38;;;;;;;6.50;3.67;;;;;;;;;;5100675;28;20043;-65
2021/08/29 11:44:24;;;;;;;7.85;4.22;;;;;;;;;;5100275;28;20047;-65
2021/08/29 11:47:09;;;;;;;9.50;4.07;;;;;;;;;;5086199;28;20043;-65
2021/08/29 11:50:30;;;;;;;6.35;3.33;;;;;;;;;;5032814;28;20057;-65
2021/08/29 11:53:42;;;;;;;7.60;4.03;;;;;;;;;;5103122;28;20079;-65
2021/08/29 11:56:28;;;;;;;8.02;3.50;;;;;;;;;;5100371;28;20055;-65
2021/08/29 11:59:15;;;;;;;5.80;3.63;;;;;;;;;;5100109;28;20122;-65
2021/08/29 12:02:03;;;;;;;8.30;4.43;;;;;;;;;;5100355;28;20052;-65
2021/08/29 12:05:06;;;;;;;6.05;3.80;;;;;;;;;;5099897;28;20092;-65
2021/08/29 12:08:07;;;;;;;5.90;3.55;;;;;;;;;;5115517;28;20497;-65
2021/08/29 12:11:11;;;;;;;6.05;3.53;;;;;;;;;;5103245;28;20051;-65
2021/08/29 12:14:16;;;;;;;5.70;3.47;;;;;;;;;;5115049;28;20502;-65
2021/08/29 12:17:22;;;;;;;7.88;4.68;;;;;;;;;;5115261;28;20051;-65
2021/08/29 12:20:08;;;;;;;6.22;3.72;;;;;;;;;;5099700;28;20525;-65
2021/08/29 12:23:22;;;;;;;5.47;3.85;;;;;;;;;;5115083;28;20047;-65
2021/08/29 12:26:09;;;;;;;8.52;4.65;;;;;;;;;;5099488;28;20056;-65
2021/08/29 12:29:01;;;;;;;6.80;3.58;;;;;;;;;;5099919;28;20052;-65
2021/08/29 12:31:46;;;;;;;5.85;3.72;;;;;;;;;;5115164;28;20180;-65
2021/08/29 12:34:32;;;;;;;6.55;3.88;;;;;;;;;;5099388;28;20051;-65
2021/08/29 12:37:17;;;;;;;7.65;4.15;;;;;;;;;;5099630;28;20047;-65
2021/08/29 12:40:02;;;;;;;9.20;3.88;;;;;;;;;;5099340;28;20501;-65
2021/08/29 12:42:49;;;;;;;5.53;4.15;;;;;;;;;;5099338;28;20501;-65
2021/08/29 12:45:46;;;;;;;5.57;3.97;;;;;;;;;;5098986;28;20047;-65
2021/08/29 12:48:31;;;;;;;10.38;5.25;;;;;;;;;;5114673;28;20091;-65
2021/08/29 12:51:18;;;;;;;6.13;4.40;;;;;;;;;;5114566;28;20055;-66
2021/08/29 12:54:03;;;;;;;5.47;4.18;;;;;;;;;;5099493;28;20056;-65
2021/08/29 12:56:52;;;;;;;7.97;4.47;;;;;;;;;;5099416;28;20056;-65
2021/08/29 12:59:37;;;;;;;5.75;4.07;;;;;;;;;;5114371;28;20087;-65
2021/08/29 13:02:22;;;;;;;10.73;4.75;;;;;;;;;;5114590;28;20048;-65
2021/08/29 13:05:08;;;;;;;7.40;4.60;;;;;;;;;;5114223;28;20167;-66
2021/08/29 13:07:55;;;;;;;10.65;4.85;;;;;;;;;;5114195;28;20052;-65
2021/08/29 13:10:40;;;;;;;8.27;4.88;;;;;;;;;;5114532;28;20052;-66
2021/08/29 13:13:31;;;;;;;6.55;4.63;;;;;;;;;;5114032;28;20047;-65
2021/08/29 13:16:17;;;;;;;10.27;4.93;;;;;;;;;;5113943;28;20044;-66
2021/08/29 13:19:02;;;;;;;7.03;3.65;;;;;;;;;;5114237;28;20082;-64
2021/08/29 13:21:51;;;;;;;8.25;4.53;;;;;;;;;;5114067;28;20047;-64
2021/08/29 13:24:37;;;;;;;8.15;5.15;;;;;;;;;;5098692;28;20497;-65
2021/08/29 13:27:23;;;;;;;8.10;4.93;;;;;;;;;;5114104;28;20122;-65
2021/08/29 13:30:08;;;;;;;11.93;5.20;;;;;;;;;;5114059;28;20094;-64
2021/08/29 13:32:53;;;;;;;9.00;3.60;;;;;;;;;;5113751;28;20521;-66
2021/08/29 13:35:39;;;;;;;9.13;4.13;;;;;;;;;;5112753;28;20048;-65
2021/08/29 13:38:24;;;;;;;9.40;4.63;;;;;;;;;;5113810;28;20093;-64
2021/08/29 13:41:09;;;;;;;7.68;4.28;;;;;;;;;;5098283;28;20118;-64
2021/08/29 13:43:56;;;;;;;6.88;4.57;;;;;;;;;;5113352;28;20493;-66
2021/08/29 13:46:41;;;;;;;9.43;4.55;;;;;;;;;;5113408;28;20060;-66
2021/08/29 13:49:26;;;;;;;5.70;4.18;;;;;;;;;;5113401;28;20557;-66
2021/08/29 13:52:12;;;;;;;5.82;3.80;;;;;;;;;;5113703;28;20410;-65
2021/08/29 13:54:57;;;;;;;8.35;4.10;;;;;;;;;;5113257;28;20052;-66
2021/08/29 13:57:42;;;;;;;4.30;3.42;;;;;;;;;;5113293;28;20063;-65
2021/08/29 14:00:28;;;;;;;6.85;3.45;;;;;;;;;;5113338;28;20048;-64
2021/08/29 14:03:13;;;;;;;4.90;3.47;;;;;;;;;;5113390;28;20051;-64
2021/08/29 14:05:59;;;;;;;6.68;4.22;;;;;;;;;;5113102;28;20047;-64
2021/08/29 14:08:44;;;;;;;6.13;4.55;;;;;;;;;;5113370;28;20047;-65
2021/08/29 14:11:29;;;;;;;6.45;4.00;;;;;;;;;;5113191;28;20093;-64
2021/08/29 14:14:15;;;;;;;7.57;4.78;;;;;;;;;;5112815;28;20434;-65
2021/08/29 14:17:00;;;;;;;7.82;4.53;;;;;;;;;;5113112;28;20051;-63
2021/08/29 14:19:46;;;;;;;5.97;4.00;;;;;;;;;;5113070;28;20052;-64
2021/08/29 14:22:31;;;;;;;6.20;3.53;;;;;;;;;;5112933;28;20079;-64
2021/08/29 14:25:16;;;;;;;8.45;4.32;;;;;;;;;;5094375;28;20048;-64
2021/08/29 14:28:02;;;;;;;7.72;4.20;;;;;;;;;;5097552;28;20068;-65
2021/08/29 14:30:48;;;;;;;8.32;4.28;;;;;;;;;;5097583;28;20059;-64
2021/08/29 14:33:33;;;;;;;7.10;3.83;;;;;;;;;;5112738;28;20051;-65
2021/08/29 14:36:18;;;;;;;5.43;3.65;;;;;;;;;;5112625;28;20472;-63
2021/08/29 14:39:04;;;;;;;5.03;3.47;;;;;;;;;;5112724;28;20055;-65
2021/08/29 14:41:49;;;;;;;7.75;3.97;;;;;;;;;;5112519;28;20390;-65
2021/08/29 14:44:34;;;;;;;4.80;3.15;;;;;;;;;;5112516;28;20043;-65
2021/08/29 14:47:19;;;;;;;5.60;3.25;;;;;;;;;;5117698;22;20044;-64
2021/08/29 14:50:05;;;;;;;6.25;3.63;;;;;;;;;;5091653;28;20055;-63
2021/08/29 14:52:51;;;;;;;7.25;3.65;;;;;;;;;;5076807;28;20048;-64
2021/08/29 14:55:38;;;;;;;7.35;3.53;;;;;;;;;;5076627;28;20439;-64
2021/08/29 14:58:24;;;;;;;6.32;3.47;;;;;;;;;;5091905;28;20232;-64
2021/08/29 15:01:10;;;;;;;4.15;3.65;;;;;;;;;;5092280;28;20044;-65
2021/08/29 15:03:55;;;;;;;6.07;3.30;;;;;;;;;;5092427;28;20055;-65
2021/08/29 15:06:40;;;;;;;6.30;3.08;;;;;;;;;;5092214;28;20048;-65
2021/08/29 15:09:26;;;;;;;7.75;3.05;;;;;;;;;;5092109;28;20509;-64
2021/08/29 15:12:11;;;;;;;6.00;3.30;;;;;;;;;;5083873;28;20413;-63
2021/08/29 15:14:57;;;;;;;6.82;2.85;;;;;;;;;;5089576;28;20052;-65
2021/08/29 15:17:42;;;;;;;7.03;3.80;;;;;;;;;;5080401;28;20514;-65
2021/08/29 15:20:28;;;;;;;8.00;4.40;;;;;;;;;;5059517;28;20118;-65
2021/08/29 15:23:13;;;;;;;8.02;4.25;;;;;;;;;;5076279;28;20052;-64
2021/08/29 15:25:59;;;;;;;6.43;3.78;;;;;;;;;;5076528;28;20044;-63
2021/08/29 15:28:44;;;;;;;7.38;4.70;;;;;;;;;;5073954;28;20119;-63
2021/08/29 15:31:29;;;;;;;9.10;4.72;;;;;;;;;;5068564;28;20057;-63
2021/08/29 15:34:14;;;;;;;7.45;4.65;;;;;;;;;;5068555;28;20514;-64
2021/08/29 15:37:00;;;;;;;5.97;4.32;;;;;;;;;;5069364;28;20127;-63
2021/08/29 15:39:46;;;;;;;6.65;4.30;;;;;;;;;;5069891;28;20056;-63
2021/08/29 15:42:31;;;;;;;8.27;4.97;;;;;;;;;;5073251;28;20134;-63
2021/08/29 15:45:17;;;;;;;7.28;4.63;;;;;;;;;;5072785;28;20047;-65
2021/08/29 15:48:02;;;;;;;10.25;4.68;;;;;;;;;;5088665;28;20084;-63
2021/08/29 15:50:48;;;;;;;10.65;5.43;;;;;;;;;;5083535;28;20044;-63
2021/08/29 15:53:34;;;;;;;7.95;5.15;;;;;;;;;;5067567;28;20659;-63
2021/08/29 15:56:20;;;;;;;9.02;5.30;;;;;;;;;;5067924;28;20048;-67
2021/08/29 15:59:06;;;;;;;7.13;5.25;;;;;;;;;;5087635;28;20517;-62
2021/08/29 16:01:52;;;;;;;7.05;6.32;;;;;;;;;;5092540;28;20048;-64
2021/08/29 16:04:38;;;;;;;12.10;7.22;;;;;;;;;;5091670;28;20063;-62
2021/08/29 16:07:24;;;;;;;10.93;6.10;;;;;;;;;;5091993;28;20048;-64
2021/08/29 16:10:10;;;;;;;10.25;5.65;;;;;;;;;;5092949;28;20048;-64
2021/08/29 16:12:55;;;;;;;9.00;6.35;;;;;;;;;;5087022;28;20052;-64
2021/08/29 16:15:40;;;;;;;10.90;6.30;;;;;;;;;;5077922;28;20056;-64
2021/08/29 16:18:25;;;;;;;10.27;6.65;;;;;;;;;;5091820;28;20059;-64
2021/08/29 16:21:10;;;;;;;9.43;7.00;;;;;;;;;;5090688;28;20044;-64
2021/08/29 16:23:56;;;;;;;12.38;7.10;;;;;;;;;;5092364;28;20460;-64
2021/08/29 16:26:41;;;;;;;10.05;6.55;;;;;;;;;;5092322;28;20048;-64
2021/08/29 16:29:26;;;;;;;9.82;6.38;;;;;;;;;;5072386;28;20415;-64
2021/08/29 16:32:11;;;;;;;9.40;5.93;;;;;;;;;;5091896;28;20052;-64
2021/08/29 16:34:57;;;;;;;8.07;5.57;;;;;;;;;;5092396;28;20048;-64
2021/08/29 16:37:42;;;;;;;7.53;6.55;;;;;;;;;;5092547;28;20048;-64
2021/08/29 16:40:27;;;;;;;8.40;6.00;;;;;;;;;;5091053;28;20052;-64
2021/08/29 16:43:13;;;;;;;10.57;6.00;;;;;;;;;;5091991;28;20056;-65
2021/08/29 16:45:58;;;;;;;10.23;6.05;;;;;;;;;;5087463;28;20041;-65
2021/08/29 16:48:43;;;;;;;11.25;6.55;;;;;;;;;;5072256;28;20506;-65
2021/08/29 16:51:28;;;;;;;8.85;6.38;;;;;;;;;;5071870;28;20052;-65
2021/08/29 16:54:13;;;;;;;13.38;6.95;;;;;;;;;;5071222;28;20057;-65
2021/08/29 16:56:59;;;;;;;11.65;7.20;;;;;;;;;;5072322;28;20061;-65